createdAt,value
2019-06-20T00:01:41.774Z,5.03
2019-06-20T00:04:11.879Z,5.75
2019-06-20T00:06:42.228Z,6.12
2019-06-20T00:09:12.402Z,6.80
2019-06-20T00:11:44.967Z,7.67
2019-06-20T00:14:17.594Z,7.78
2019-06-20T00:16:47.980Z,8.15
2019-06-20T00:19:18.066Z,7.72
2019-06-20T00:21:48.208Z,8.60
2019-06-20T00:24:18.313Z,8.48
2019-06-20T00:26:51.649Z,8.80
2019-06-20T00:29:29.366Z,9.60
2019-06-20T00:31:59.576Z,9.68
2019-06-20T00:34:29.687Z,10.03
2019-06-20T00:37:00.058Z,9.88
2019-06-20T00:39:31.862Z,11.35
2019-06-20T00:42:02.026Z,9.78
2019-06-20T00:44:32.151Z,11.20
2019-06-20T00:47:02.281Z,10.68
2019-06-20T00:49:32.389Z,11.03
2019-06-20T00:52:04.082Z,12.00
2019-06-20T00:54:34.362Z,11.88
2019-06-20T00:57:08.655Z,13.22
2019-06-20T00:59:45.128Z,14.13
2019-06-20T01:02:15.355Z,13.78
2019-06-20T01:04:45.849Z,14.15
2019-06-20T01:07:17.514Z,14.45
2019-06-20T01:09:47.662Z,13.98
2019-06-20T01:12:17.909Z,13.72
2019-06-20T01:14:48.189Z,14.03
2019-06-20T01:17:19.376Z,14.53
2019-06-20T01:19:49.581Z,14.55
2019-06-20T01:22:19.739Z,14.70
2019-06-20T01:24:49.916Z,14.03
2019-06-20T01:27:20.169Z,15.10
2019-06-20T01:29:50.450Z,14.83
2019-06-20T01:32:20.862Z,15.55
2019-06-20T01:34:51.137Z,15.48
2019-06-20T01:37:21.363Z,15.55
2019-06-20T01:39:51.526Z,15.40
2019-06-20T01:42:23.296Z,16.23
2019-06-20T01:44:54.574Z,16.45
2019-06-20T01:47:27.318Z,15.75
2019-06-20T01:49:57.468Z,17.10
2019-06-20T01:52:27.588Z,15.15
2019-06-20T01:54:57.952Z,14.70
2019-06-20T01:57:28.189Z,16.80
2019-06-20T01:59:58.348Z,15.45
2019-06-20T02:02:28.518Z,17.32
2019-06-20T02:04:58.788Z,17.37
2019-06-20T02:07:30.741Z,17.17
2019-06-20T02:10:00.994Z,18.52
2019-06-20T02:12:31.293Z,17.77
2019-06-20T02:15:01.514Z,18.10
2019-06-20T02:17:32.702Z,18.12
2019-06-20T02:20:02.972Z,18.07
2019-06-20T02:22:34.118Z,19.98
2019-06-20T02:25:04.657Z,19.07
2019-06-20T02:27:35.077Z,20.37
2019-06-20T02:30:05.789Z,20.80
2019-06-20T02:32:36.069Z,19.98
2019-06-20T02:35:06.258Z,21.80
2019-06-20T02:37:36.444Z,19.70
2019-06-20T02:40:06.762Z,20.43
2019-06-20T02:42:37.151Z,21.68
2019-06-20T02:45:07.526Z,21.55
2019-06-20T02:47:37.754Z,22.60
2019-06-20T02:50:08.063Z,23.00
2019-06-20T02:52:38.274Z,23.27
2019-06-20T02:55:09.505Z,23.20
2019-06-20T02:57:39.832Z,24.77
2019-06-20T03:00:12.849Z,22.87
2019-06-20T03:02:43.062Z,24.00
2019-06-20T03:05:22.362Z,25.52
2019-06-20T03:07:52.531Z,25.12
2019-06-20T03:10:22.725Z,25.70
2019-06-20T03:12:54.413Z,26.62
2019-06-20T03:15:24.490Z,26.82
2019-06-20T03:17:54.699Z,26.50
2019-06-20T03:20:29.773Z,24.98
2019-06-20T03:22:59.991Z,25.00
2019-06-20T03:25:30.207Z,25.45
2019-06-20T03:28:00.441Z,25.57
2019-06-20T03:30:30.602Z,26.55
2019-06-20T03:33:00.798Z,27.15
2019-06-20T03:35:30.990Z,26.70
2019-06-20T03:38:04.123Z,27.58
2019-06-20T03:40:36.477Z,26.35
2019-06-20T03:43:06.704Z,27.50
2019-06-20T03:45:38.525Z,27.73
2019-06-20T03:48:08.805Z,25.72
2019-06-20T03:50:39.015Z,27.62
2019-06-20T03:53:09.245Z,27.20
2019-06-20T03:55:39.343Z,26.85
2019-06-20T03:58:11.922Z,26.95
2019-06-20T04:00:43.295Z,27.05
2019-06-20T04:03:13.695Z,29.35
2019-06-20T04:05:43.922Z,26.15
2019-06-20T04:08:14.186Z,27.55
2019-06-20T04:10:46.472Z,25.48
2019-06-20T04:13:16.725Z,28.00
2019-06-20T04:15:48.630Z,26.45
2019-06-20T04:18:18.882Z,27.98
2019-06-20T04:20:49.008Z,26.57
2019-06-20T04:23:23.029Z,26.90
2019-06-20T04:25:53.252Z,28.02
2019-06-20T04:28:25.183Z,26.50
2019-06-20T04:30:55.325Z,27.30
2019-06-20T04:33:25.508Z,27.65
2019-06-20T04:35:55.779Z,28.30
2019-06-20T04:38:28.341Z,26.27
2019-06-20T04:40:58.446Z,26.73
2019-06-20T04:43:28.726Z,28.15
2019-06-20T04:46:17.938Z,28.80
2019-06-20T04:48:48.110Z,28.10
2019-06-20T04:51:18.248Z,28.32
2019-06-20T04:53:49.950Z,26.73
2019-06-20T04:56:20.222Z,26.93
2019-06-20T04:58:50.354Z,29.37
2019-06-20T05:01:20.601Z,26.65
2019-06-20T05:03:50.835Z,28.95
2019-06-20T05:06:21.186Z,28.02
2019-06-20T05:08:55.511Z,28.62
2019-06-20T05:11:26.841Z,28.23
2019-06-20T05:13:59.297Z,28.62
2019-06-20T05:16:29.577Z,28.47
2019-06-20T05:18:59.887Z,29.30
2019-06-20T05:21:30.016Z,29.67
2019-06-20T05:24:00.163Z,30.02
2019-06-20T05:26:30.332Z,29.42
2019-06-20T05:29:00.495Z,29.40
2019-06-20T05:31:30.829Z,26.70
2019-06-20T05:34:01.070Z,28.32
2019-06-20T05:36:33.617Z,27.48
2019-06-20T05:39:04.816Z,27.95
2019-06-20T05:41:34.900Z,27.22
2019-06-20T05:44:05.145Z,28.07
2019-06-20T05:46:35.677Z,26.68
2019-06-20T05:49:05.955Z,27.87
2019-06-20T05:51:39.832Z,27.52
2019-06-20T05:54:10.182Z,27.60
2019-06-20T05:56:40.465Z,26.30
2019-06-20T05:59:10.695Z,27.25
2019-06-20T06:01:40.852Z,26.70
2019-06-20T06:04:13.297Z,27.58
2019-06-20T06:06:43.495Z,28.40
2019-06-20T06:09:15.504Z,26.37
2019-06-20T06:11:47.872Z,28.45
2019-06-20T06:14:18.059Z,26.30
2019-06-20T06:16:48.166Z,26.80
2019-06-20T06:19:18.299Z,28.05
2019-06-20T06:21:48.579Z,27.40
2019-06-20T06:24:18.798Z,26.93
2019-06-20T06:26:48.930Z,25.68
2019-06-20T06:29:19.293Z,26.17
2019-06-20T06:31:49.558Z,28.40
2019-06-20T06:34:21.983Z,27.75
2019-06-20T06:36:52.897Z,26.87
2019-06-20T06:39:23.037Z,28.27
2019-06-20T06:41:53.243Z,26.77
2019-06-20T06:44:23.454Z,26.37
2019-06-20T06:46:59.262Z,26.25
2019-06-20T06:49:25.563Z,27.58
2019-06-20T06:51:55.857Z,25.40
2019-06-20T06:54:26.180Z,24.32
2019-06-20T06:56:56.458Z,24.50
2019-06-20T06:59:26.777Z,22.80
2019-06-20T07:01:58.642Z,21.52
2019-06-20T07:04:28.916Z,21.20
2019-06-20T07:06:59.115Z,20.43
2019-06-20T07:09:29.517Z,19.75
2019-06-20T07:12:00.942Z,18.23
2019-06-20T07:14:31.378Z,18.55
2019-06-20T07:17:01.588Z,18.40
2019-06-20T07:19:31.780Z,20.30
2019-06-20T07:22:02.096Z,19.37
2019-06-20T07:24:32.319Z,20.70
2019-06-20T07:27:02.503Z,19.80
2019-06-20T07:29:36.015Z,20.72
2019-06-20T07:32:06.131Z,20.62
2019-06-20T07:34:36.692Z,21.00
2019-06-20T07:37:06.826Z,22.50
2019-06-20T07:39:41.736Z,23.92
2019-06-20T07:42:08.874Z,26.00
2019-06-20T07:44:40.434Z,22.52
2019-06-20T07:47:17.432Z,22.55
2019-06-20T07:49:42.869Z,22.98
2019-06-20T07:52:13.070Z,23.80
2019-06-20T07:54:43.323Z,19.95
2019-06-20T07:57:14.527Z,18.05
2019-06-20T07:59:44.669Z,18.85
2019-06-20T08:02:14.860Z,18.85
2019-06-20T08:04:45.017Z,18.12
2019-06-20T08:07:17.266Z,18.42
2019-06-20T08:09:47.616Z,18.07
2019-06-20T08:12:17.729Z,18.25
2019-06-20T08:14:48.034Z,18.15
2019-06-20T08:17:34.364Z,17.60
2019-06-20T08:19:50.123Z,15.20
2019-06-20T08:22:20.330Z,15.20
2019-06-20T08:24:50.555Z,14.43
2019-06-20T08:27:39.680Z,15.65
2019-06-20T08:30:10.090Z,13.75
2019-06-20T08:32:40.368Z,14.15
2019-06-20T08:35:10.705Z,13.65
2019-06-20T08:37:42.083Z,13.55
2019-06-20T08:40:12.504Z,13.65
2019-06-20T08:42:42.701Z,13.88
2019-06-20T08:45:13.457Z,15.58
2019-06-20T08:47:43.578Z,14.53
2019-06-20T08:50:14.973Z,15.38
2019-06-20T08:52:45.271Z,15.50
2019-06-20T08:55:16.650Z,16.57
2019-06-20T08:57:46.909Z,15.35
2019-06-20T09:00:17.549Z,15.32
2019-06-20T09:02:47.673Z,16.12
2019-06-20T09:05:18.065Z,16.52
2019-06-20T09:07:49.238Z,16.25
2019-06-20T09:10:20.033Z,16.25
2019-06-20T09:12:57.012Z,16.17
2019-06-20T09:15:27.315Z,15.10
2019-06-20T09:17:58.490Z,16.32
2019-06-20T09:20:30.082Z,16.12
2019-06-20T09:23:01.114Z,15.45
2019-06-20T09:25:32.686Z,14.80
2019-06-20T09:28:02.939Z,13.85
2019-06-20T09:30:33.240Z,15.25
2019-06-20T09:33:04.211Z,15.65
2019-06-20T09:35:34.875Z,14.38
2019-06-20T09:38:05.238Z,13.98
2019-06-20T09:40:35.356Z,14.68
2019-06-20T09:43:09.065Z,14.63
2019-06-20T09:45:39.181Z,15.48
2019-06-20T09:48:09.306Z,13.72
2019-06-20T09:50:39.518Z,14.43
2019-06-20T09:53:09.713Z,14.95
2019-06-20T09:55:41.543Z,14.03
2019-06-20T09:58:11.666Z,13.72
2019-06-20T10:00:41.850Z,12.82
2019-06-20T10:03:11.991Z,11.03
2019-06-20T10:05:42.183Z,11.18
2019-06-20T10:08:13.314Z,10.95
2019-06-20T10:10:43.609Z,9.75
2019-06-20T10:13:13.801Z,9.78
2019-06-20T10:15:44.924Z,9.03
2019-06-20T10:18:15.968Z,8.85
2019-06-20T10:20:47.260Z,7.85
2019-06-20T10:23:17.536Z,7.08
2019-06-20T10:25:49.309Z,7.25
2019-06-20T10:28:20.134Z,8.60
2019-06-20T10:30:53.490Z,8.03
2019-06-20T10:33:24.749Z,8.60
2019-06-20T10:35:57.109Z,8.15
2019-06-20T10:38:27.542Z,8.80
2019-06-20T10:40:59.869Z,8.93
2019-06-20T10:43:32.602Z,7.75
2019-06-20T10:46:02.915Z,7.90
2019-06-20T10:48:33.122Z,7.75
2019-06-20T10:51:21.014Z,8.30
2019-06-20T10:53:51.594Z,7.30
2019-06-20T10:56:27.525Z,7.12
2019-06-20T10:58:57.704Z,6.58
2019-06-20T11:01:30.700Z,5.95
2019-06-20T11:04:00.809Z,6.25
2019-06-20T11:06:31.085Z,5.25
2019-06-20T11:09:01.249Z,6.17
2019-06-20T11:11:33.209Z,6.17
2019-06-20T11:14:05.305Z,6.35
2019-06-20T11:16:36.992Z,5.17
2019-06-20T11:19:08.918Z,4.65
2019-06-20T11:21:41.622Z,4.45
2019-06-20T11:24:11.871Z,4.35
2019-06-20T11:26:43.084Z,6.20
2019-06-20T11:29:13.373Z,6.03
2019-06-20T11:31:47.590Z,5.85
2019-06-20T11:34:17.659Z,4.75
2019-06-20T11:36:48.928Z,5.53
2019-06-20T11:39:19.008Z,5.22
2019-06-20T11:41:49.269Z,5.10
2019-06-20T11:44:19.428Z,5.58
2019-06-20T11:46:51.549Z,4.70
2019-06-20T11:49:21.736Z,4.80
2019-06-20T11:51:52.001Z,4.85
2019-06-20T11:54:22.233Z,4.90
2019-06-20T11:56:52.401Z,5.25
2019-06-20T11:59:22.577Z,4.12
2019-06-20T12:01:52.890Z,4.10
2019-06-20T12:04:23.095Z,3.58
2019-06-20T12:06:55.861Z,4.15
2019-06-20T12:09:26.182Z,3.80
2019-06-20T12:11:56.393Z,3.72
2019-06-20T12:14:26.568Z,3.50
2019-06-20T12:16:56.821Z,3.70
2019-06-20T12:19:26.947Z,3.45
2019-06-20T12:21:57.691Z,3.65
2019-06-20T12:24:28.055Z,3.80
2019-06-20T12:26:58.281Z,3.22
2019-06-20T12:29:28.504Z,3.30
2019-06-20T12:32:00.958Z,2.92
2019-06-20T12:34:30.851Z,3.20
2019-06-20T12:37:02.287Z,3.83
2019-06-20T12:39:32.374Z,3.42
2019-06-20T12:42:02.638Z,3.27
2019-06-20T12:44:32.879Z,3.70
2019-06-20T12:47:03.186Z,4.15
2019-06-20T12:49:33.379Z,3.90
2019-06-20T12:52:05.391Z,4.33
2019-06-20T12:54:35.657Z,3.47
2019-06-20T12:57:07.129Z,3.65
2019-06-20T12:59:38.073Z,3.60
2019-06-20T13:02:09.418Z,3.65
2019-06-20T13:04:41.685Z,3.20
2019-06-20T13:07:11.878Z,3.72
2019-06-20T13:09:44.102Z,3.30
2019-06-20T13:12:14.404Z,3.52
2019-06-20T13:14:45.668Z,3.33
2019-06-20T13:17:16.086Z,3.37
2019-06-20T13:19:48.565Z,2.92
2019-06-20T13:22:18.838Z,3.80
2019-06-20T13:24:49.504Z,3.70
2019-06-20T13:27:19.879Z,4.97
2019-06-20T13:29:50.121Z,3.60
2019-06-20T13:32:20.677Z,4.05
2019-06-20T13:34:50.883Z,3.65
2019-06-20T13:37:21.047Z,3.72
2019-06-20T13:39:51.295Z,3.85
2019-06-20T13:42:21.795Z,3.80
2019-06-20T13:44:52.845Z,3.47
2019-06-20T13:47:23.194Z,4.20
2019-06-20T13:49:55.097Z,4.70
2019-06-20T13:52:25.328Z,3.87
2019-06-20T13:54:55.630Z,4.62
2019-06-20T13:57:26.257Z,4.17
2019-06-20T13:59:58.266Z,3.67
2019-06-20T14:02:28.649Z,4.03
2019-06-20T14:04:58.808Z,4.00
2019-06-20T14:07:32.080Z,4.35
2019-06-20T14:10:02.255Z,3.95
2019-06-20T14:12:32.405Z,4.22
2019-06-20T14:15:08.168Z,3.60
2019-06-20T14:17:41.492Z,3.52
2019-06-20T14:20:14.446Z,3.60
2019-06-20T14:22:45.143Z,3.55
2019-06-20T14:25:15.667Z,3.30
2019-06-20T14:27:46.219Z,3.25
2019-06-20T14:30:18.911Z,2.60
2019-06-20T14:32:49.536Z,2.42
2019-06-20T14:35:21.112Z,2.87
2019-06-20T14:37:52.029Z,2.55
2019-06-20T14:40:22.550Z,2.35
2019-06-20T14:42:54.247Z,2.50
2019-06-20T14:45:24.705Z,2.75
2019-06-20T14:47:55.214Z,2.60
2019-06-20T14:50:25.654Z,2.85
2019-06-20T14:52:56.354Z,2.40
2019-06-20T14:55:26.619Z,2.42
2019-06-20T14:57:56.887Z,2.10
2019-06-20T15:00:27.349Z,3.95
2019-06-20T15:02:58.749Z,5.22
2019-06-20T15:05:29.100Z,7.12
2019-06-20T15:07:59.235Z,6.85
2019-06-20T15:10:29.556Z,6.92
2019-06-20T15:12:59.845Z,6.60
2019-06-20T15:15:31.618Z,7.17
2019-06-20T15:18:02.108Z,7.10
2019-06-20T15:20:32.458Z,6.45
2019-06-20T15:23:02.696Z,5.95
2019-06-20T15:25:32.978Z,6.58
2019-06-20T15:28:03.502Z,6.22
2019-06-20T15:30:35.338Z,6.10
2019-06-20T15:33:10.317Z,7.08
2019-06-20T15:35:37.382Z,6.45
2019-06-20T15:38:09.807Z,7.08
2019-06-20T15:40:41.021Z,6.80
2019-06-20T15:43:14.480Z,7.47
2019-06-20T15:45:44.789Z,8.80
2019-06-20T15:48:14.977Z,7.67
2019-06-20T15:50:45.130Z,7.75
2019-06-20T15:53:15.447Z,8.50
2019-06-20T15:55:48.583Z,6.97
2019-06-20T15:58:18.872Z,7.10
2019-06-20T16:00:49.046Z,6.65
2019-06-20T16:03:19.274Z,7.10
2019-06-20T16:05:49.461Z,7.22
2019-06-20T16:08:19.696Z,6.00
2019-06-20T16:10:52.001Z,7.60
2019-06-20T16:13:22.303Z,7.58
2019-06-20T16:15:52.536Z,7.45
2019-06-20T16:18:22.785Z,6.97
2019-06-20T16:20:53.368Z,7.30
2019-06-20T16:23:23.629Z,7.90
2019-06-20T16:25:53.799Z,7.37
2019-06-20T16:28:24.031Z,8.35
2019-06-20T16:31:07.919Z,7.95
2019-06-20T16:33:26.269Z,7.58
2019-06-20T16:35:56.561Z,7.22
2019-06-20T16:38:26.833Z,6.45
2019-06-20T16:40:57.112Z,7.03
2019-06-20T16:43:27.309Z,6.42
2019-06-20T16:45:58.652Z,6.17
2019-06-20T16:48:29.003Z,6.20
2019-06-20T16:50:59.473Z,5.78
2019-06-20T16:53:29.791Z,5.97
2019-06-20T16:56:00.102Z,6.10
2019-06-20T16:58:30.313Z,6.55
2019-06-20T17:01:00.438Z,6.20
2019-06-20T17:03:41.397Z,6.12
2019-06-20T17:06:02.697Z,5.95
2019-06-20T17:08:32.879Z,6.42
2019-06-20T17:11:03.063Z,5.60
2019-06-20T17:13:35.569Z,5.30
2019-06-20T17:16:05.835Z,4.78
2019-06-20T17:18:36.399Z,5.22
2019-06-20T17:21:06.723Z,4.85
2019-06-20T17:23:37.014Z,4.62
2019-06-20T17:26:07.695Z,4.97
2019-06-20T17:28:37.952Z,5.70
2019-06-20T17:31:08.199Z,5.45
2019-06-20T17:33:38.465Z,4.35
2019-06-20T17:36:17.706Z,4.42
2019-06-20T17:38:43.600Z,4.78
2019-06-20T17:41:13.774Z,4.58
2019-06-20T17:43:43.962Z,4.87
2019-06-20T17:46:14.140Z,4.80
2019-06-20T17:48:44.463Z,5.72
2019-06-20T17:51:17.530Z,5.67
2019-06-20T17:53:50.428Z,6.60
2019-06-20T17:56:20.709Z,5.28
2019-06-20T17:58:51.016Z,6.60
2019-06-20T18:01:21.239Z,5.05
2019-06-20T18:03:51.457Z,5.62
2019-06-20T18:06:21.585Z,6.22
2019-06-20T18:08:51.946Z,8.70
2019-06-20T18:11:22.434Z,7.28
2019-06-20T18:13:54.669Z,6.53
2019-06-20T18:16:25.592Z,6.00
2019-06-20T18:18:55.931Z,5.90
2019-06-20T18:21:27.298Z,6.45
2019-06-20T18:23:57.631Z,6.75
2019-06-20T18:26:27.968Z,7.03
2019-06-20T18:29:00.562Z,6.17
2019-06-20T18:31:30.912Z,5.85
2019-06-20T18:34:01.221Z,6.17
2019-06-20T18:36:33.998Z,7.12
2019-06-20T18:39:05.233Z,6.58
2019-06-20T18:41:36.569Z,6.90
2019-06-20T18:44:08.403Z,7.42
2019-06-20T18:46:38.825Z,6.35
2019-06-20T18:49:09.207Z,7.15
2019-06-20T18:51:40.129Z,6.65
2019-06-20T18:54:11.264Z,6.22
2019-06-20T18:56:41.573Z,6.58
2019-06-20T18:59:11.939Z,7.40
2019-06-20T19:01:42.373Z,6.70
2019-06-20T19:04:12.745Z,6.97
2019-06-20T19:06:43.128Z,6.78
2019-06-20T19:09:13.599Z,6.22
2019-06-20T19:11:44.010Z,7.47
2019-06-20T19:14:14.601Z,6.60
2019-06-20T19:16:46.187Z,5.95
2019-06-20T19:19:16.572Z,6.70
2019-06-20T19:21:48.378Z,5.70
2019-06-20T19:24:18.777Z,6.10
2019-06-20T19:26:49.094Z,5.47
2019-06-20T19:29:19.571Z,5.45
2019-06-20T19:31:49.999Z,6.00
2019-06-20T19:34:20.341Z,6.15
2019-06-20T19:36:50.751Z,5.05
2019-06-20T19:39:22.640Z,5.87
2019-06-20T19:41:55.935Z,5.15
2019-06-20T19:44:26.309Z,5.35
2019-06-20T19:46:56.650Z,5.30
2019-06-20T19:49:27.119Z,5.33
2019-06-20T19:51:57.345Z,4.80
2019-06-20T19:54:27.997Z,5.22
2019-06-20T19:56:58.299Z,4.87
2019-06-20T19:59:30.746Z,5.50
2019-06-20T20:02:02.220Z,5.47
2019-06-20T20:04:32.587Z,5.10
2019-06-20T20:07:04.203Z,5.08
2019-06-20T20:09:34.652Z,4.60
2019-06-20T20:12:05.106Z,5.12
2019-06-20T20:14:35.593Z,4.65
2019-06-20T20:17:05.972Z,4.58
2019-06-20T20:19:36.349Z,4.67
2019-06-20T20:22:07.802Z,4.33
2019-06-20T20:24:38.124Z,4.12
2019-06-20T20:27:08.474Z,4.60
2019-06-20T20:29:38.638Z,4.28
2019-06-20T20:32:10.095Z,5.67
2019-06-20T20:34:40.432Z,4.03
2019-06-20T20:37:10.776Z,3.50
2019-06-20T20:39:43.597Z,3.00
2019-06-20T20:42:17.872Z,2.70
2019-06-20T20:44:49.351Z,2.55
2019-06-20T20:47:19.702Z,2.83
2019-06-20T20:49:49.992Z,2.40
2019-06-20T20:52:20.288Z,1.98
2019-06-20T20:54:50.529Z,2.30
2019-06-20T20:57:20.740Z,2.37
2019-06-20T20:59:50.948Z,2.20
2019-06-20T21:02:21.240Z,1.90
2019-06-20T21:04:51.566Z,2.05
2019-06-20T21:07:24.343Z,1.85
2019-06-20T21:09:54.987Z,1.65
2019-06-20T21:12:25.509Z,1.55
2019-06-20T21:14:55.873Z,1.70
2019-06-20T21:17:26.110Z,1.82
2019-06-20T21:19:56.329Z,1.90
2019-06-20T21:22:28.401Z,1.95
2019-06-20T21:24:58.674Z,1.60
2019-06-20T21:27:28.860Z,1.37
2019-06-20T21:30:00.741Z,1.67
2019-06-20T21:32:31.118Z,1.37
2019-06-20T21:35:04.493Z,1.67
2019-06-20T21:37:35.622Z,1.42
2019-06-20T21:40:06.374Z,1.80
2019-06-20T21:42:36.536Z,1.30
2019-06-20T21:45:07.523Z,1.27
2019-06-20T21:47:37.941Z,1.22
2019-06-20T21:50:08.254Z,1.40
2019-06-20T21:52:38.495Z,1.55
2019-06-20T21:55:09.519Z,1.62
2019-06-20T21:57:39.815Z,1.30
2019-06-20T22:00:15.913Z,1.30
2019-06-20T22:02:47.359Z,1.62
2019-06-20T22:05:17.969Z,1.70
2019-06-20T22:07:48.185Z,1.22
2019-06-20T22:10:18.600Z,1.27
2019-06-20T22:12:48.855Z,1.83
2019-06-20T22:15:19.494Z,2.33
2019-06-20T22:17:49.602Z,1.20
2019-06-20T22:20:19.965Z,1.47
2019-06-20T22:22:50.248Z,1.30
2019-06-20T22:25:21.349Z,1.92
2019-06-20T22:27:51.473Z,1.40
2019-06-20T22:30:56.958Z,1.30
2019-06-20T22:33:32.387Z,1.70
2019-06-20T22:36:02.624Z,1.25
2019-06-20T22:38:32.840Z,1.53
2019-06-20T22:41:03.079Z,1.32
2019-06-20T22:43:33.265Z,1.50
2019-06-20T22:46:03.634Z,1.40
2019-06-20T22:48:36.215Z,1.60
2019-06-20T22:51:08.017Z,1.50
2019-06-20T22:53:38.202Z,1.80
2019-06-20T22:56:08.529Z,1.65
2019-06-20T22:58:38.944Z,1.72
2019-06-20T23:01:09.128Z,1.57
2019-06-20T23:03:40.986Z,2.47
2019-06-20T23:06:11.245Z,2.10
2019-06-20T23:08:41.707Z,2.35
2019-06-20T23:11:13.930Z,2.17
2019-06-20T23:13:44.168Z,2.30
2019-06-20T23:16:14.405Z,2.57
2019-06-20T23:18:44.577Z,2.20
2019-06-20T23:21:14.846Z,2.10
2019-06-20T23:23:44.947Z,2.10
2019-06-20T23:26:15.253Z,2.00
2019-06-20T23:28:47.292Z,2.17
2019-06-20T23:31:17.640Z,1.90
2019-06-20T23:33:47.733Z,1.80
2019-06-20T23:36:17.875Z,2.55
2019-06-20T23:38:49.235Z,2.47
2019-06-20T23:41:19.352Z,2.23
2019-06-20T23:43:49.450Z,2.10
2019-06-20T23:46:19.686Z,2.07
2019-06-20T23:48:49.946Z,2.62
2019-06-20T23:51:25.319Z,2.17
2019-06-20T23:53:53.009Z,1.75
2019-06-20T23:56:23.281Z,2.07
2019-06-20T23:58:53.458Z,2.43
